sensor_id;sensor_type;location;lat;lon;timestamp;pressure;altitude;pressure_sealevel;temperature;humidity
73896;BME280;62229;50.770;6.080;2022-09-02T00:07:53;99535.47;;;19.56;41.46
73896;BME280;62229;50.770;6.080;2022-09-02T00:17:56;99533.00;;;19.48;41.81
73896;BME280;62229;50.770;6.080;2022-09-02T00:27:58;99521.41;;;19.46;41.34
73896;BME280;62229;50.770;6.080;2022-09-02T00:38:02;99519.72;;;19.45;41.73
73896;BME280;62229;50.770;6.080;2022-09-02T00:48:04;99515.75;;;19.41;41.12
73896;BME280;62229;50.770;6.080;2022-09-02T00:58:13;99510.66;;;19.44;42.33
73896;BME280;62229;50.770;6.080;2022-09-02T01:08:17;99508.97;;;19.43;41.49
73896;BME280;62229;50.770;6.080;2022-09-02T01:18:23;99504.41;;;19.37;42.18
73896;BME280;62229;50.770;6.080;2022-09-02T01:28:26;99508.56;;;19.28;41.81
73896;BME280;62229;50.770;6.080;2022-09-02T01:38:28;99508.88;;;19.20;41.42
73896;BME280;62229;50.770;6.080;2022-09-02T01:48:31;99503.63;;;19.18;42.11
73896;BME280;62229;50.770;6.080;2022-09-02T01:58:33;99504.69;;;19.17;41.67
73896;BME280;62229;50.770;6.080;2022-09-02T02:08:36;99501.78;;;19.12;42.41
73896;BME280;62229;50.770;6.080;2022-09-02T02:18:39;99502.25;;;19.09;42.24
73896;BME280;62229;50.770;6.080;2022-09-02T02:28:42;99496.03;;;19.02;42.72
73896;BME280;62229;50.770;6.080;2022-09-02T02:38:44;99500.84;;;18.88;42.55
73896;BME280;62229;50.770;6.080;2022-09-02T02:48:48;99502.19;;;18.79;43.11
73896;BME280;62229;50.770;6.080;2022-09-02T02:58:49;99493.13;;;18.79;43.07
73896;BME280;62229;50.770;6.080;2022-09-02T03:08:52;99487.97;;;18.71;43.72
73896;BME280;62229;50.770;6.080;2022-09-02T03:18:54;99497.72;;;18.67;43.39
73896;BME280;62229;50.770;6.080;2022-09-02T03:28:57;99486.28;;;18.70;44.00
73896;BME280;62229;50.770;6.080;2022-09-02T03:38:59;99484.00;;;18.67;43.78
73896;BME280;62229;50.770;6.080;2022-09-02T03:49:03;99481.47;;;18.65;44.32
73896;BME280;62229;50.770;6.080;2022-09-02T03:59:04;99477.91;;;18.65;43.87
73896;BME280;62229;50.770;6.080;2022-09-02T04:09:07;99469.06;;;18.63;45.15
73896;BME280;62229;50.770;6.080;2022-09-02T04:19:09;99468.63;;;18.59;44.41
73896;BME280;62229;50.770;6.080;2022-09-02T04:29:12;99460.25;;;18.54;45.03
73896;BME280;62229;50.770;6.080;2022-09-02T04:39:14;99464.28;;;18.51;44.76
73896;BME280;62229;50.770;6.080;2022-09-02T04:49:17;99465.50;;;18.55;45.67
73896;BME280;62229;50.770;6.080;2022-09-02T04:59:18;99468.22;;;18.62;44.95
73896;BME280;62229;50.770;6.080;2022-09-02T05:09:21;99464.34;;;18.70;45.58
73896;BME280;62229;50.770;6.080;2022-09-02T05:19:23;99463.25;;;18.89;45.26
73896;BME280;62229;50.770;6.080;2022-09-02T05:29:26;99460.00;;;19.10;45.44
73896;BME280;62229;50.770;6.080;2022-09-02T05:39:28;99453.66;;;20.63;43.01
73896;BME280;62229;50.770;6.080;2022-09-02T05:49:31;99452.69;;;21.83;42.43
73896;BME280;62229;50.770;6.080;2022-09-02T05:59:34;99453.56;;;20.98;43.95
73896;BME280;62229;50.770;6.080;2022-09-02T06:09:39;99459.81;;;20.94;43.89
73896;BME280;62229;50.770;6.080;2022-09-02T06:19:43;99443.84;;;21.07;43.35
73896;BME280;62229;50.770;6.080;2022-09-02T06:29:47;99440.97;;;21.59;42.96
73896;BME280;62229;50.770;6.080;2022-09-02T06:39:49;99444.00;;;22.08;42.01
73896;BME280;62229;50.770;6.080;2022-09-02T06:49:51;99441.59;;;23.15;40.46
73896;BME280;62229;50.770;6.080;2022-09-02T06:59:53;99435.50;;;24.88;38.92
73896;BME280;62229;50.770;6.080;2022-09-02T07:09:56;99416.34;;;32.86;30.21
73896;BME280;62229;50.770;6.080;2022-09-02T07:19:58;99403.84;;;36.32;29.78
73896;BME280;62229;50.770;6.080;2022-09-02T07:30:01;99409.19;;;38.86;25.62
73896;BME280;62229;50.770;6.080;2022-09-02T07:40:06;99409.06;;;40.45;21.28
73896;BME280;62229;50.770;6.080;2022-09-02T07:50:09;99400.59;;;40.72;19.61
73896;BME280;62229;50.770;6.080;2022-09-02T08:00:13;99399.44;;;41.22;20.88
73896;BME280;62229;50.770;6.080;2022-09-02T08:10:17;99383.53;;;42.44;18.05
73896;BME280;62229;50.770;6.080;2022-09-02T08:20:20;99385.44;;;43.29;18.60
73896;BME280;62229;50.770;6.080;2022-09-02T08:30:23;99373.72;;;42.90;14.86
73896;BME280;62229;50.770;6.080;2022-09-02T08:40:29;99386.72;;;43.42;12.21
73896;BME280;62229;50.770;6.080;2022-09-02T08:50:35;99364.34;;;43.51;13.38
73896;BME280;62229;50.770;6.080;2022-09-02T09:00:39;99365.91;;;44.74;12.94
73896;BME280;62229;50.770;6.080;2022-09-02T09:10:53;99365.03;;;43.23;10.66
73896;BME280;62229;50.770;6.080;2022-09-02T09:20:58;99363.41;;;44.16;13.58
73896;BME280;62229;50.770;6.080;2022-09-02T09:31:01;99346.03;;;43.59;13.43
73896;BME280;62229;50.770;6.080;2022-09-02T09:41:13;99341.00;;;39.30;12.69
73896;BME280;62229;50.770;6.080;2022-09-02T09:51:18;99330.56;;;41.09;13.11
73896;BME280;62229;50.770;6.080;2022-09-02T10:01:22;99318.94;;;39.58;14.41
73896;BME280;62229;50.770;6.080;2022-09-02T10:11:27;99310.00;;;37.92;15.22
73896;BME280;62229;50.770;6.080;2022-09-02T10:21:43;99318.38;;;39.49;12.93
73896;BME280;62229;50.770;6.080;2022-09-02T10:31:54;99299.56;;;38.55;13.44
73896;BME280;62229;50.770;6.080;2022-09-02T10:42:06;99280.53;;;35.54;16.32
73896;BME280;62229;50.770;6.080;2022-09-02T10:52:25;99263.28;;;33.58;17.14
73896;BME280;62229;50.770;6.080;2022-09-02T11:02:35;99261.00;;;33.00;17.85
73896;BME280;62229;50.770;6.080;2022-09-02T11:12:44;99249.63;;;33.05;17.34
73896;BME280;62229;50.770;6.080;2022-09-02T11:22:51;99236.84;;;32.55;17.98
73896;BME280;62229;50.770;6.080;2022-09-02T11:33:01;99228.09;;;32.48;18.13
73896;BME280;62229;50.770;6.080;2022-09-02T11:43:21;99219.56;;;33.05;17.55
73896;BME280;62229;50.770;6.080;2022-09-02T11:53:30;99203.41;;;35.59;15.62
73896;BME280;62229;50.770;6.080;2022-09-02T12:03:33;99200.94;;;33.73;17.15
73896;BME280;62229;50.770;6.080;2022-09-02T12:13:39;99198.66;;;33.58;16.91
73896;BME280;62229;50.770;6.080;2022-09-02T12:34:55;99179.50;;;32.05;18.81
73896;BME280;62229;50.770;6.080;2022-09-02T12:45:11;99175.09;;;31.42;18.71
73896;BME280;62229;50.770;6.080;2022-09-02T12:55:24;99166.91;;;38.92;12.43
73896;BME280;62229;50.770;6.080;2022-09-02T13:05:44;99163.31;;;32.02;18.16
73896;BME280;62229;50.770;6.080;2022-09-02T13:16:07;99157.03;;;31.56;18.65
73896;BME280;62229;50.770;6.080;2022-09-02T13:26:24;99151.22;;;29.78;20.42
73896;BME280;62229;50.770;6.080;2022-09-02T13:36:34;99133.34;;;34.70;15.54
73896;BME280;62229;50.770;6.080;2022-09-02T13:46:45;99118.78;;;34.06;15.92
73896;BME280;62229;50.770;6.080;2022-09-02T13:56:49;99109.09;;;33.10;16.86
73896;BME280;62229;50.770;6.080;2022-09-02T14:06:51;99105.19;;;42.56;9.99
73896;BME280;62229;50.770;6.080;2022-09-02T14:17:19;99090.94;;;35.08;15.27
73896;BME280;62229;50.770;6.080;2022-09-02T14:27:22;99081.19;;;31.93;18.55
73896;BME280;62229;50.770;6.080;2022-09-02T14:37:26;99071.88;;;30.65;19.45
73896;BME280;62229;50.770;6.080;2022-09-02T14:47:29;99064.78;;;30.45;19.22
73896;BME280;62229;50.770;6.080;2022-09-02T14:57:33;99066.56;;;30.18;19.31
73896;BME280;62229;50.770;6.080;2022-09-02T15:07:35;99049.97;;;29.86;19.19
73896;BME280;62229;50.770;6.080;2022-09-02T15:17:38;99054.88;;;28.47;20.79
73896;BME280;62229;50.770;6.080;2022-09-02T15:27:40;99040.53;;;27.83;20.99
73896;BME280;62229;50.770;6.080;2022-09-02T15:37:43;99038.94;;;28.66;20.54
73896;BME280;62229;50.770;6.080;2022-09-02T15:47:45;99043.28;;;28.02;21.02
73896;BME280;62229;50.770;6.080;2022-09-02T15:57:49;99038.88;;;27.40;21.96
73896;BME280;62229;50.770;6.080;2022-09-02T16:07:51;99039.56;;;26.74;22.26
73896;BME280;62229;50.770;6.080;2022-09-02T16:17:55;99032.06;;;26.45;23.15
73896;BME280;62229;50.770;6.080;2022-09-02T16:27:57;99021.88;;;25.97;22.82
73896;BME280;62229;50.770;6.080;2022-09-02T16:38:00;99008.91;;;25.33;24.06
73896;BME280;62229;50.770;6.080;2022-09-02T16:48:02;99012.84;;;25.16;23.82
73896;BME280;62229;50.770;6.080;2022-09-02T16:58:08;99010.41;;;24.95;24.71
73896;BME280;62229;50.770;6.080;2022-09-02T17:08:10;99017.66;;;24.80;24.25
73896;BME280;62229;50.770;6.080;2022-09-02T17:18:13;99023.53;;;24.48;25.17
73896;BME280;62229;50.770;6.080;2022-09-02T17:28:15;99011.31;;;24.14;25.08
73896;BME280;62229;50.770;6.080;2022-09-02T17:38:18;99013.47;;;23.76;26.27
73896;BME280;62229;50.770;6.080;2022-09-02T17:48:20;99012.00;;;23.48;25.96
73896;BME280;62229;50.770;6.080;2022-09-02T17:58:23;99022.41;;;23.21;26.90
73896;BME280;62229;50.770;6.080;2022-09-02T18:08:34;99011.75;;;22.87;28.26
73896;BME280;62229;50.770;6.080;2022-09-02T18:18:42;99020.06;;;22.55;28.56
73896;BME280;62229;50.770;6.080;2022-09-02T18:28:51;99034.75;;;22.24;29.26
73896;BME280;62229;50.770;6.080;2022-09-02T18:39:08;99037.25;;;21.99;30.05
73896;BME280;62229;50.770;6.080;2022-09-02T18:49:15;99044.50;;;21.78;27.90
73896;BME280;62229;50.770;6.080;2022-09-02T18:59:22;99044.53;;;21.56;30.08
73896;BME280;62229;50.770;6.080;2022-09-02T19:09:26;99059.69;;;21.32;28.59
73896;BME280;62229;50.770;6.080;2022-09-02T19:19:29;99061.88;;;21.13;29.76
73896;BME280;62229;50.770;6.080;2022-09-02T19:29:34;99067.78;;;20.83;29.92
73896;BME280;62229;50.770;6.080;2022-09-02T19:39:39;99071.09;;;20.63;30.51
73896;BME280;62229;50.770;6.080;2022-09-02T19:49:40;99078.19;;;20.42;29.84
73896;BME280;62229;50.770;6.080;2022-09-02T19:59:43;99068.06;;;20.14;31.05
73896;BME280;62229;50.770;6.080;2022-09-02T20:09:45;99060.78;;;19.92;30.68
73896;BME280;62229;50.770;6.080;2022-09-02T20:19:48;99066.56;;;19.78;31.74
73896;BME280;62229;50.770;6.080;2022-09-02T20:30:00;99061.88;;;19.62;33.68
73896;BME280;62229;50.770;6.080;2022-09-02T20:40:17;99057.25;;;19.51;34.97
73896;BME280;62229;50.770;6.080;2022-09-02T20:50:33;99058.25;;;19.33;35.85
73896;BME280;62229;50.770;6.080;2022-09-02T21:00:39;99057.31;;;19.28;36.94
73896;BME280;62229;50.770;6.080;2022-09-02T21:10:45;99056.78;;;19.02;33.15
73896;BME280;62229;50.770;6.080;2022-09-02T21:20:55;99056.09;;;18.72;35.88
73896;BME280;62229;50.770;6.080;2022-09-02T21:31:02;99048.47;;;18.74;35.03
73896;BME280;62229;50.770;6.080;2022-09-02T21:41:28;99049.06;;;18.76;37.59
73896;BME280;62229;50.770;6.080;2022-09-02T21:51:32;99039.50;;;18.67;34.56
73896;BME280;62229;50.770;6.080;2022-09-02T22:01:42;99037.84;;;18.66;37.03
73896;BME280;62229;50.770;6.080;2022-09-02T22:11:51;99032.84;;;18.63;36.28
73896;BME280;62229;50.770;6.080;2022-09-02T22:22:03;99026.63;;;18.44;38.87
73896;BME280;62229;50.770;6.080;2022-09-02T22:32:10;99022.56;;;18.35;35.64
73896;BME280;62229;50.770;6.080;2022-09-02T22:42:18;99026.13;;;18.35;37.28
73896;BME280;62229;50.770;6.080;2022-09-02T22:52:30;99014.69;;;18.62;35.13
73896;BME280;62229;50.770;6.080;2022-09-02T23:02:53;99007.75;;;18.59;36.43
73896;BME280;62229;50.770;6.080;2022-09-02T23:13:03;99002.97;;;18.54;34.99
73896;BME280;62229;50.770;6.080;2022-09-02T23:23:21;99003.22;;;18.53;37.03
73896;BME280;62229;50.770;6.080;2022-09-02T23:33:38;98999.19;;;18.67;36.42
73896;BME280;62229;50.770;6.080;2022-09-02T23:43:49;98988.94;;;18.63;34.73
73896;BME280;62229;50.770;6.080;2022-09-02T23:54:13;98986.75;;;18.53;37.74
